createdAt,value
2022-12-18T00:02:14.094Z,-2.60
2022-12-18T00:04:40.753Z,-2.60
2022-12-18T00:07:07.493Z,-2.60
2022-12-18T00:09:39.603Z,-2.60
2022-12-18T00:14:45.370Z,-2.70
2022-12-18T00:17:12.193Z,-2.70
2022-12-18T00:19:38.845Z,-2.80
2022-12-18T00:22:06.941Z,-2.80
2022-12-18T00:24:33.605Z,-2.80
2022-12-18T00:27:00.218Z,-2.80
2022-12-18T00:29:27.149Z,-2.80
2022-12-18T05:31:29.172Z,-1.50
2022-12-18T05:33:56.114Z,-1.50
2022-12-18T05:36:22.749Z,-1.50
2022-12-18T05:38:49.941Z,-1.40
2022-12-18T05:41:16.776Z,-1.30
2022-12-18T05:43:44.287Z,-1.10
2022-12-18T05:46:18.431Z,-1.20
2022-12-18T05:48:46.341Z,-1.40
2022-12-18T05:51:16.082Z,-1.60
2022-12-18T05:53:44.040Z,-1.60
2022-12-18T05:56:18.855Z,-2.00
2022-12-18T05:58:45.654Z,-1.80
2022-12-18T06:01:12.163Z,-1.70
2022-12-18T06:03:39.219Z,-2.00
2022-12-18T06:06:21.418Z,-1.90
2022-12-18T06:08:48.599Z,-1.70
2022-12-18T06:11:18.802Z,-1.50
2022-12-18T06:13:45.393Z,-1.30
2022-12-18T06:16:11.981Z,-1.60
2022-12-18T06:18:38.668Z,-1.50
2022-12-18T06:21:05.915Z,-1.30
2022-12-18T06:23:32.472Z,-1.30
2022-12-18T06:25:59.113Z,-1.10
2022-12-18T06:28:25.653Z,-1.00
2022-12-18T06:30:52.218Z,-1.10
2022-12-18T06:33:18.964Z,-1.10
2022-12-18T06:35:45.654Z,-1.10
2022-12-18T06:38:12.313Z,-1.00
2022-12-18T06:40:40.145Z,-1.00
2022-12-18T06:43:07.314Z,-1.20
2022-12-18T06:45:34.187Z,-1.30
2022-12-18T06:48:01.311Z,-1.20
2022-12-18T06:50:28.093Z,-1.00
2022-12-18T06:52:54.675Z,-1.10
2022-12-18T06:55:21.338Z,-1.10
2022-12-18T06:57:47.977Z,-1.20
2022-12-18T07:00:14.769Z,-1.10
2022-12-18T07:02:41.634Z,-1.50
2022-12-18T07:05:10.906Z,-1.60
2022-12-18T07:07:37.925Z,-1.60
2022-12-18T07:10:04.835Z,-1.40
2022-12-18T07:12:31.345Z,-1.40
2022-12-18T07:14:57.874Z,-1.20
2022-12-18T07:17:24.420Z,-1.10
2022-12-18T07:19:50.980Z,-1.10
2022-12-18T07:22:17.499Z,-1.20
2022-12-18T07:24:44.084Z,-1.00
2022-12-18T07:27:10.666Z,-0.90
2022-12-18T07:29:37.178Z,-1.10
2022-12-18T07:32:04.830Z,-1.10
2022-12-18T07:34:31.415Z,-1.00
2022-12-18T07:36:57.943Z,-1.00
2022-12-18T07:39:24.516Z,-0.90
2022-12-18T07:42:11.346Z,-0.80
2022-12-18T07:44:38.215Z,-0.80
2022-12-18T07:47:07.761Z,-0.70
2022-12-18T07:49:38.350Z,-0.60
2022-12-18T07:52:04.942Z,-0.60
2022-12-18T07:54:31.530Z,-0.60
2022-12-18T07:56:58.104Z,-0.60
2022-12-18T07:59:24.655Z,-0.60
2022-12-18T08:01:51.357Z,-0.70
2022-12-18T08:04:18.143Z,-0.80
2022-12-18T08:06:47.757Z,-1.00
2022-12-18T08:09:14.941Z,-0.90
2022-12-18T08:11:41.487Z,-0.80
2022-12-18T08:14:08.041Z,-0.70
2022-12-18T08:16:34.636Z,-0.60
2022-12-18T08:19:01.316Z,-0.60
2022-12-18T08:21:29.081Z,-0.70
2022-12-18T08:23:56.896Z,-0.80
2022-12-18T08:26:23.873Z,-0.80
2022-12-18T08:28:51.377Z,-0.60
2022-12-18T08:31:18.492Z,-0.50
2022-12-18T08:33:45.169Z,-0.40
2022-12-18T08:36:11.728Z,-0.30
2022-12-18T08:38:38.318Z,-0.20
2022-12-18T08:41:09.843Z,-0.20
2022-12-18T08:43:54.928Z,-0.30
2022-12-18T08:46:22.451Z,-0.20
2022-12-18T08:48:51.484Z,-0.20
2022-12-18T08:51:18.231Z,-0.10
2022-12-18T08:53:45.448Z,-0.10
2022-12-18T08:56:12.582Z,-0.30
2022-12-18T08:58:39.121Z,-0.40
2022-12-18T09:01:07.094Z,-0.30
2022-12-18T09:03:34.045Z,-0.20
2022-12-18T09:06:00.648Z,-0.10
2022-12-18T09:08:27.928Z,-0.10
2022-12-18T09:10:54.508Z,-0.10
2022-12-18T09:13:21.286Z,-0.10
2022-12-18T09:15:55.054Z,-0.10
2022-12-18T09:18:23.199Z,0.10
2022-12-18T09:20:51.183Z,0.20
2022-12-18T09:23:17.715Z,0.20
2022-12-18T09:25:44.304Z,0.30
2022-12-18T09:28:12.045Z,0.30
2022-12-18T09:30:39.714Z,0.00
2022-12-18T09:33:06.312Z,-0.20
2022-12-18T09:35:33.919Z,0.00
2022-12-18T09:38:00.458Z,-0.10
2022-12-18T09:40:36.870Z,-0.20
2022-12-18T09:43:05.442Z,-0.30
2022-12-18T09:45:42.828Z,-0.10
2022-12-18T09:48:15.366Z,0.10
2022-12-18T09:50:42.120Z,-0.10
2022-12-18T09:53:14.862Z,-0.50
2022-12-18T09:55:42.715Z,-0.80
2022-12-18T09:58:10.439Z,-1.00
2022-12-18T10:00:37.211Z,-1.10
2022-12-18T10:03:09.747Z,-0.90
2022-12-18T10:05:36.404Z,-0.90
2022-12-18T10:08:05.906Z,-0.90
2022-12-18T10:10:41.061Z,-0.60
2022-12-18T10:13:20.605Z,-0.40
2022-12-18T10:15:50.326Z,-0.10
2022-12-18T10:18:43.445Z,0.00
2022-12-18T10:21:16.408Z,0.10
2022-12-18T10:23:49.118Z,0.20
2022-12-18T10:26:15.725Z,0.30
2022-12-18T10:28:43.239Z,0.50
2022-12-18T10:31:20.478Z,0.60
2022-12-18T10:33:47.358Z,0.60
2022-12-18T10:36:14.147Z,0.40
2022-12-18T10:38:41.372Z,0.30
2022-12-18T10:41:29.339Z,0.10
2022-12-18T10:44:16.420Z,-0.10
2022-12-18T10:46:43.174Z,0.10
2022-12-18T10:49:19.845Z,0.20
2022-12-18T10:51:46.410Z,0.00
2022-12-18T10:54:17.655Z,-0.20
2022-12-18T10:56:44.529Z,-0.40
2022-12-18T10:59:13.012Z,-0.50
2022-12-18T11:01:50.257Z,-0.20
2022-12-18T11:04:18.618Z,0.00
2022-12-18T11:07:04.890Z,-0.10
2022-12-18T11:09:32.722Z,0.10
2022-12-18T11:12:00.316Z,0.40
2022-12-18T11:14:28.931Z,0.60
2022-12-18T11:17:25.479Z,0.40
2022-12-18T11:19:43.026Z,0.10
2022-12-18T11:22:28.786Z,0.30
2022-12-18T11:27:55.397Z,0.10
2022-12-18T11:30:23.542Z,0.00
2022-12-18T11:32:51.925Z,0.00
2022-12-18T11:35:21.526Z,-0.10
2022-12-18T11:38:06.699Z,0.00
2022-12-18T11:40:41.282Z,0.00
2022-12-18T11:43:16.851Z,-0.30
2022-12-18T11:45:48.263Z,-0.30
2022-12-18T11:48:19.990Z,-0.30
2022-12-18T11:50:51.836Z,-0.50
2022-12-18T11:53:19.070Z,-0.60
2022-12-18T11:56:04.631Z,-0.50
2022-12-18T11:58:40.731Z,-0.30
2022-12-18T12:01:11.687Z,-0.10
2022-12-18T12:03:56.522Z,-0.10
2022-12-18T12:06:39.651Z,0.10
2022-12-18T12:09:18.416Z,0.10
2022-12-18T12:11:53.123Z,0.10
2022-12-18T12:14:26.176Z,-0.10
2022-12-18T12:16:52.860Z,-0.20
2022-12-18T12:19:38.292Z,-0.40
2022-12-18T12:22:07.877Z,-0.20
2022-12-18T12:24:53.181Z,0.00
2022-12-18T12:27:28.730Z,0.00
2022-12-18T12:29:58.290Z,0.20
2022-12-18T12:32:28.039Z,0.40
2022-12-18T12:35:09.299Z,0.50
2022-12-18T12:37:51.496Z,0.50
2022-12-18T12:40:49.790Z,0.40
2022-12-18T12:43:20.636Z,0.40
2022-12-18T12:45:49.959Z,0.40
2022-12-18T12:48:25.547Z,0.50
2022-12-18T12:50:53.422Z,0.60
2022-12-18T12:53:26.983Z,0.60
2022-12-18T12:55:55.518Z,0.60
2022-12-18T12:58:29.235Z,0.60
2022-12-18T13:01:19.927Z,0.40
2022-12-18T13:04:04.996Z,0.00
2022-12-18T13:06:44.902Z,-0.30
2022-12-18T13:09:12.917Z,-0.50
2022-12-18T13:12:06.364Z,-0.40
2022-12-18T13:14:40.860Z,-0.30
2022-12-18T13:17:22.718Z,-0.10
2022-12-18T13:20:10.927Z,0.30
2022-12-18T13:22:43.366Z,0.60
2022-12-18T13:25:28.665Z,0.80
2022-12-18T13:28:01.378Z,1.10
2022-12-18T13:30:33.975Z,1.00
2022-12-18T13:33:16.292Z,0.90
2022-12-18T13:35:52.205Z,0.90
2022-12-18T13:38:35.998Z,0.80
2022-12-18T13:41:03.520Z,0.90
2022-12-18T13:43:58.153Z,0.70
2022-12-18T13:46:29.249Z,0.70
2022-12-18T13:49:03.890Z,0.80
2022-12-18T13:51:32.345Z,0.90
2022-12-18T13:54:03.725Z,0.60
2022-12-18T13:56:32.068Z,0.30
2022-12-18T13:59:34.717Z,0.20
2022-12-18T14:02:06.660Z,-0.10
2022-12-18T14:04:35.519Z,0.00
2022-12-18T14:07:02.014Z,-0.40
2022-12-18T14:09:31.943Z,-0.40
2022-12-18T14:12:17.640Z,-0.40
2022-12-18T14:14:45.420Z,-0.40
2022-12-18T14:17:13.136Z,-0.30
2022-12-18T14:19:42.472Z,0.00
2022-12-18T14:22:15.625Z,0.10
2022-12-18T14:24:42.172Z,0.20
2022-12-18T14:27:26.403Z,0.40
2022-12-18T14:29:52.902Z,0.80
2022-12-18T14:32:21.435Z,0.90
2022-12-18T14:34:49.441Z,1.10
2022-12-18T14:37:17.678Z,1.00
2022-12-18T14:40:10.414Z,0.80
2022-12-18T14:42:37.857Z,0.60
2022-12-18T14:45:42.667Z,0.60
2022-12-18T14:48:10.796Z,0.40
2022-12-18T14:50:39.594Z,0.10
2022-12-18T14:53:06.159Z,0.10
2022-12-18T14:55:32.863Z,0.10
2022-12-18T14:57:59.449Z,0.30
2022-12-18T15:00:26.631Z,0.30
2022-12-18T15:02:56.602Z,0.40
2022-12-18T15:05:28.372Z,0.20
2022-12-18T15:07:56.244Z,0.10
2022-12-18T15:10:23.106Z,-0.10
2022-12-18T15:12:51.006Z,0.10
2022-12-18T15:15:38.594Z,0.30
2022-12-18T15:18:12.610Z,0.50
2022-12-18T15:20:43.600Z,0.50
2022-12-18T15:23:15.481Z,0.70
2022-12-18T15:25:41.996Z,0.80
2022-12-18T15:28:23.882Z,0.50
2022-12-18T15:31:22.226Z,0.70
2022-12-18T15:33:54.958Z,0.80
2022-12-18T15:36:26.702Z,0.90
2022-12-18T15:38:56.171Z,0.90
2022-12-18T15:41:36.501Z,0.90
2022-12-18T15:44:03.659Z,0.80
2022-12-18T15:46:31.744Z,0.70
2022-12-18T15:49:02.333Z,0.80
2022-12-18T15:51:32.217Z,0.80
2022-12-18T15:54:01.644Z,1.00
2022-12-18T15:56:46.639Z,0.90
2022-12-18T15:59:16.145Z,0.80
2022-12-18T16:01:44.261Z,0.60
2022-12-18T16:04:13.927Z,0.70
2022-12-18T16:07:12.763Z,0.80
2022-12-18T16:09:27.208Z,0.90
2022-12-18T16:11:54.127Z,1.00
2022-12-18T16:14:27.490Z,1.00
2022-12-18T16:16:55.372Z,1.00
2022-12-18T16:19:24.986Z,1.10
2022-12-18T16:21:52.238Z,1.10
2022-12-18T16:24:19.787Z,1.10
2022-12-18T16:26:46.673Z,0.90
2022-12-18T16:29:13.233Z,1.00
2022-12-18T16:31:39.853Z,0.90
2022-12-18T16:34:23.469Z,1.00
2022-12-18T16:36:55.579Z,1.10
2022-12-18T16:39:24.839Z,1.10
2022-12-18T16:41:51.740Z,1.10
2022-12-18T16:44:18.798Z,0.90
2022-12-18T16:46:49.002Z,0.80
2022-12-18T16:49:17.971Z,0.80
2022-12-18T16:51:46.522Z,0.90
2022-12-18T16:54:18.614Z,0.90
2022-12-18T16:56:47.784Z,0.90
2022-12-18T16:59:14.371Z,0.80
2022-12-18T17:01:41.966Z,0.80
2022-12-18T17:04:09.519Z,0.90
2022-12-18T17:06:41.020Z,1.00
2022-12-18T17:09:12.145Z,1.00
2022-12-18T17:11:38.838Z,0.90
2022-12-18T17:14:15.964Z,1.00
2022-12-18T17:16:42.950Z,0.90
2022-12-18T17:19:16.621Z,0.70
2022-12-18T17:21:50.223Z,0.70
2022-12-18T17:24:17.173Z,0.90
2022-12-18T17:26:45.429Z,0.90
2022-12-18T17:29:19.927Z,0.90
2022-12-18T17:31:47.890Z,0.80
2022-12-18T17:34:15.515Z,0.50
2022-12-18T17:36:42.344Z,0.40
2022-12-18T17:39:11.692Z,0.30
2022-12-18T17:41:38.348Z,0.40
2022-12-18T17:44:06.099Z,0.30
2022-12-18T17:46:34.097Z,0.40
2022-12-18T17:49:02.634Z,0.50
2022-12-18T17:51:30.175Z,0.40
2022-12-18T17:53:56.831Z,0.40
2022-12-18T17:56:24.650Z,0.50
2022-12-18T17:58:52.237Z,0.70
2022-12-18T18:01:25.007Z,0.70
2022-12-18T18:03:54.131Z,0.70
2022-12-18T18:06:21.852Z,0.60
2022-12-18T18:08:48.993Z,0.60
2022-12-18T18:11:36.655Z,0.60
2022-12-18T18:14:06.310Z,0.70
2022-12-18T18:16:44.620Z,0.70
2022-12-18T18:19:14.993Z,0.70
2022-12-18T18:21:44.597Z,0.80
2022-12-18T18:24:14.219Z,0.80
2022-12-18T18:26:44.233Z,0.80
2022-12-18T18:29:17.418Z,0.60
2022-12-18T18:31:44.358Z,0.50
2022-12-18T18:34:20.135Z,0.40
2022-12-18T18:36:46.802Z,0.20
2022-12-18T18:39:14.010Z,0.10
2022-12-18T18:41:41.340Z,0.10
2022-12-18T18:44:14.675Z,0.00
2022-12-18T18:46:41.487Z,0.20
2022-12-18T18:49:08.150Z,0.30
2022-12-18T18:51:35.436Z,0.50
2022-12-18T18:54:02.586Z,0.50
2022-12-18T18:59:16.029Z,0.80
2022-12-18T19:01:43.128Z,0.90
2022-12-18T19:04:10.246Z,0.90
2022-12-18T19:06:36.821Z,0.70
2022-12-18T19:09:04.790Z,0.50
2022-12-18T19:11:50.356Z,0.70
2022-12-18T19:14:17.729Z,0.70
2022-12-18T19:16:45.434Z,0.80
2022-12-18T19:19:13.111Z,0.80
2022-12-18T19:21:39.880Z,0.80
2022-12-18T19:24:06.647Z,0.80
2022-12-18T19:26:33.373Z,0.80
2022-12-18T19:29:08.425Z,0.80
2022-12-18T19:31:37.021Z,0.80
2022-12-18T19:34:07.506Z,0.70
2022-12-18T19:36:36.368Z,0.80
2022-12-18T19:39:07.647Z,0.80
2022-12-18T19:41:34.226Z,0.70
2022-12-18T19:44:07.377Z,0.70
2022-12-18T19:46:35.337Z,0.50
2022-12-18T19:49:02.111Z,0.50
2022-12-18T19:51:30.156Z,0.50
2022-12-18T19:53:59.112Z,0.40
2022-12-18T19:56:29.808Z,0.20
2022-12-18T19:58:56.673Z,0.40
2022-12-18T20:01:25.312Z,0.50
2022-12-18T20:03:54.529Z,0.60
2022-12-18T20:06:25.400Z,0.60
2022-12-18T20:08:52.956Z,0.30
2022-12-18T20:11:26.175Z,0.40
2022-12-18T20:13:52.851Z,0.60
2022-12-18T20:16:19.553Z,0.50
2022-12-18T20:18:46.375Z,0.70
2022-12-18T20:21:14.215Z,0.80
2022-12-18T20:23:41.557Z,0.90
2022-12-18T20:26:08.826Z,0.90
2022-12-18T20:28:35.821Z,1.00
2022-12-18T20:31:03.984Z,1.10
2022-12-18T20:33:31.111Z,1.00
2022-12-18T20:36:02.538Z,1.00
2022-12-18T20:38:30.102Z,1.00
2022-12-18T20:40:58.557Z,1.10
2022-12-18T20:43:25.219Z,1.10
2022-12-18T20:45:51.845Z,1.10
2022-12-18T20:48:23.574Z,1.10
2022-12-18T20:51:05.667Z,1.10
2022-12-18T20:53:34.193Z,1.00
2022-12-18T20:56:02.140Z,1.00
2022-12-18T20:58:28.705Z,1.10
2022-12-18T21:01:12.796Z,1.20
2022-12-18T21:03:41.302Z,1.10
2022-12-18T21:06:09.315Z,1.10
2022-12-18T21:08:36.697Z,1.20
2022-12-18T21:11:40.209Z,1.20
2022-12-18T21:14:21.539Z,1.20
2022-12-18T21:16:48.861Z,1.40
2022-12-18T21:19:18.639Z,1.40
2022-12-18T21:21:45.713Z,1.40
2022-12-18T21:24:12.958Z,1.30
2022-12-18T21:26:45.244Z,1.40
2022-12-18T21:29:15.303Z,1.40
2022-12-18T21:31:42.207Z,1.30
2022-12-18T21:34:13.938Z,1.30
2022-12-18T21:36:40.618Z,1.20
2022-12-18T21:39:07.250Z,0.90
2022-12-18T21:41:52.418Z,1.00
2022-12-18T21:44:22.398Z,1.10
2022-12-18T21:46:55.675Z,1.10
2022-12-18T21:49:25.225Z,1.10
2022-12-18T21:51:54.388Z,1.20
2022-12-18T21:54:21.334Z,1.20
2022-12-18T21:57:02.431Z,1.30
2022-12-18T21:59:40.197Z,1.30
2022-12-18T22:02:19.867Z,1.20
2022-12-18T22:04:47.318Z,1.20
2022-12-18T22:07:16.904Z,1.20
2022-12-18T22:09:43.725Z,1.10
2022-12-18T22:12:12.751Z,1.00
2022-12-18T22:14:39.372Z,1.10
2022-12-18T22:17:06.036Z,1.10
2022-12-18T22:19:38.114Z,1.20
2022-12-18T22:22:09.391Z,1.20
2022-12-18T22:24:35.969Z,1.30
2022-12-18T22:27:02.669Z,1.30
2022-12-18T22:29:48.374Z,1.30
2022-12-18T22:32:17.055Z,1.30
2022-12-18T22:35:03.233Z,1.30
2022-12-18T22:37:32.949Z,1.30
2022-12-18T22:39:59.503Z,1.40
2022-12-18T22:42:30.464Z,1.20
2022-12-18T22:44:57.090Z,1.20
2022-12-18T22:47:29.201Z,1.30
2022-12-18T22:49:56.286Z,1.20
2022-12-18T22:52:24.923Z,1.30
2022-12-18T22:54:53.336Z,1.40
2022-12-18T22:57:21.508Z,1.30
2022-12-18T22:59:48.154Z,1.30
2022-12-18T23:02:14.976Z,1.00
2022-12-18T23:04:41.648Z,1.20
2022-12-18T23:07:08.355Z,1.20
2022-12-18T23:09:35.190Z,1.20
2022-12-18T23:12:02.744Z,1.30
2022-12-18T23:14:30.374Z,1.20
2022-12-18T23:16:57.206Z,1.20
2022-12-18T23:19:24.142Z,1.20
2022-12-18T23:21:51.312Z,1.20
2022-12-18T23:24:18.161Z,1.20
2022-12-18T23:26:44.788Z,1.20
2022-12-18T23:29:11.373Z,1.10
2022-12-18T23:31:39.037Z,1.10
2022-12-18T23:34:06.718Z,1.10
2022-12-18T23:36:36.929Z,1.20
2022-12-18T23:39:15.390Z,1.30
2022-12-18T23:41:55.173Z,1.30
2022-12-18T23:44:21.728Z,1.30
2022-12-18T23:46:48.366Z,1.30
2022-12-18T23:49:14.971Z,1.40
2022-12-18T23:51:41.561Z,1.40
2022-12-18T23:54:09.458Z,1.40
2022-12-18T23:56:36.284Z,1.50
2022-12-18T23:59:02.930Z,1.50
